Time;durP1;ratioP1;P1;durP2;ratioP2;P2;SDS_P1;SDS_P2;PMS_P1;PMS_P2;Temp;Humidity;BMP_temperature;BMP_pressure;BME280_temperature;BME280_humidity;BME280_pressure;Samples;Min_cycle;Max_cycle;Signal;HPM_P1;HPM_P2
2024/03/15 00:01:00;;;;;;;4.10;1.48;;;21.40;59.10;;;;;;4972925;28;86831;-66
2024/03/15 00:03:26;;;;;;;2.15;1.25;;;21.40;59.00;;;;;;4973046;28;87419;-67
2024/03/15 00:05:52;;;;;;;3.63;1.48;;;21.40;59.00;;;;;;4954911;28;87326;-67
2024/03/15 00:08:18;;;;;;;7.43;1.83;;;21.40;59.00;;;;;;4977755;28;90002;-67
2024/03/15 00:10:44;;;;;;;3.13;1.63;;;21.40;59.00;;;;;;4972622;28;89954;-67
2024/03/15 00:13:11;;;;;;;4.47;1.27;;;21.40;58.90;;;;;;4992382;28;87189;-67
2024/03/15 00:15:39;;;;;;;2.60;1.55;;;21.30;59.00;;;;;;4982505;28;87064;-67
2024/03/15 00:18:05;;;;;;;3.55;1.33;;;21.30;58.90;;;;;;4972034;28;88095;-67
2024/03/15 00:20:30;;;;;;;3.90;1.52;;;21.30;58.80;;;;;;4971457;28;88192;-67
2024/03/15 00:22:56;;;;;;;2.30;1.25;;;21.30;59.00;;;;;;4972213;28;86930;-68
2024/03/15 00:25:22;;;;;;;1.73;1.17;;;21.30;59.00;;;;;;4973409;28;86905;-67
2024/03/15 00:27:48;;;;;;;4.63;1.33;;;21.30;59.00;;;;;;4954711;28;89529;-67
2024/03/15 00:30:14;;;;;;;2.75;1.63;;;21.30;58.90;;;;;;4972758;28;88841;-67
2024/03/15 00:32:39;;;;;;;3.45;1.73;;;21.30;58.90;;;;;;4972482;28;88350;-67
2024/03/15 00:35:05;;;;;;;2.08;1.08;;;21.30;59.00;;;;;;4970335;28;87533;-67
2024/03/15 00:37:32;;;;;;;5.18;1.50;;;21.30;59.00;;;;;;4953668;28;87760;-67
2024/03/15 00:39:58;;;;;;;4.32;1.80;;;21.30;59.00;;;;;;4963265;28;87935;-67
2024/03/15 00:42:26;;;;;;;2.25;1.02;;;21.30;58.90;;;;;;5007477;28;87405;-67
2024/03/15 00:44:53;;;;;;;3.05;1.08;;;21.20;59.00;;;;;;4965480;28;87572;-67
2024/03/15 00:47:19;;;;;;;3.58;1.55;;;21.20;58.90;;;;;;4969355;28;88839;-67
2024/03/15 00:49:46;;;;;;;2.95;1.40;;;21.30;58.90;;;;;;4972636;28;87754;-67
2024/03/15 00:52:12;;;;;;;2.00;1.33;;;21.20;58.90;;;;;;4972862;28;87073;-67
2024/03/15 00:54:38;;;;;;;1.83;1.05;;;21.20;58.80;;;;;;4991858;28;87253;-67
2024/03/15 00:57:07;;;;;;;3.08;1.55;;;21.20;58.80;;;;;;4990497;28;89252;-67
2024/03/15 00:59:36;;;;;;;2.45;1.10;;;21.20;58.80;;;;;;4988489;28;88758;-67
2024/03/15 01:02:02;;;;;;;3.50;1.35;;;21.20;58.90;;;;;;4969245;28;87725;-68
2024/03/15 01:04:28;;;;;;;2.55;1.30;;;21.20;58.80;;;;;;4974586;28;87229;-68
2024/03/15 01:06:55;;;;;;;2.58;1.48;;;21.20;59.00;;;;;;4952939;28;88895;-67
2024/03/15 01:09:21;;;;;;;2.92;1.50;;;21.20;59.00;;;;;;4955105;28;88504;-66
2024/03/15 01:11:47;;;;;;;2.03;1.33;;;21.20;58.60;;;;;;4953245;28;87354;-67
2024/03/15 01:14:15;;;;;;;4.07;1.60;;;21.20;58.60;;;;;;4969517;28;87818;-67
2024/03/15 01:16:45;;;;;;;2.08;1.25;;;21.20;58.70;;;;;;4972501;28;88195;-67
2024/03/15 01:19:11;;;;;;;2.33;1.42;;;21.20;58.70;;;;;;4970377;28;89903;-67
2024/03/15 01:21:37;;;;;;;3.15;1.35;;;21.20;58.60;;;;;;4973206;28;88267;-67
2024/03/15 01:24:03;;;;;;;7.97;1.73;;;21.10;58.60;;;;;;4955077;28;87539;-67
2024/03/15 01:26:29;;;;;;;2.83;1.50;;;21.20;58.60;;;;;;4970554;28;88054;-67
2024/03/15 01:28:54;;;;;;;2.53;0.82;;;21.10;58.60;;;;;;4971426;28;87762;-67
2024/03/15 01:31:20;;;;;;;3.22;1.45;;;21.10;58.50;;;;;;4970279;28;87307;-67
2024/03/15 01:33:46;;;;;;;3.72;1.40;;;21.10;58.60;;;;;;4969488;28;88158;-67
2024/03/15 01:36:12;;;;;;;2.50;0.85;;;21.10;58.50;;;;;;4971137;28;90659;-68
2024/03/15 01:38:38;;;;;;;5.95;1.30;;;21.10;58.50;;;;;;4971415;28;87794;-67
2024/03/15 01:41:04;;;;;;;1.50;1.40;;;21.10;58.60;;;;;;4967687;28;87203;-67
2024/03/15 01:43:29;;;;;;;1.50;0.90;;;21.10;58.60;;;;;;4972488;28;87178;-68
2024/03/15 01:45:55;;;;;;;3.78;1.40;;;21.10;58.60;;;;;;4970937;28;88339;-67
2024/03/15 01:48:21;;;;;;;2.30;1.02;;;21.10;58.60;;;;;;4972717;28;88754;-66
2024/03/15 01:50:47;;;;;;;1.80;0.90;;;21.10;58.60;;;;;;4953869;28;87495;-67
2024/03/15 01:53:15;;;;;;;1.40;0.80;;;21.10;58.60;;;;;;4971829;28;87422;-67
2024/03/15 01:55:40;;;;;;;2.30;1.15;;;21.10;58.60;;;;;;4950440;28;88900;-66
2024/03/15 01:58:08;;;;;;;2.25;1.30;;;21.10;58.80;;;;;;4972031;28;87677;-67
2024/03/15 02:00:33;;;;;;;2.85;1.60;;;21.10;58.90;;;;;;4969821;28;89430;-67
2024/03/15 02:02:59;;;;;;;2.47;1.10;;;21.10;58.80;;;;;;4972213;28;86931;-67
2024/03/15 02:05:26;;;;;;;1.48;1.00;;;21.10;58.80;;;;;;4972348;28;88141;-67
2024/03/15 02:07:52;;;;;;;2.10;1.02;;;21.00;58.80;;;;;;4954111;28;88547;-67
2024/03/15 02:10:20;;;;;;;5.00;1.45;;;21.00;58.80;;;;;;4970968;28;87847;-67
2024/03/15 02:12:49;;;;;;;3.38;1.50;;;21.10;58.90;;;;;;4972762;28;87571;-67
2024/03/15 02:15:14;;;;;;;3.03;1.20;;;21.00;58.80;;;;;;4975749;28;88239;-67
2024/03/15 02:17:42;;;;;;;2.03;0.90;;;21.10;58.90;;;;;;4975034;28;86954;-67
2024/03/15 02:20:11;;;;;;;2.13;0.88;;;21.00;58.80;;;;;;4975656;28;86973;-67
2024/03/15 02:22:40;;;;;;;2.33;1.40;;;21.00;58.70;;;;;;4957223;28;87744;-67
2024/03/15 02:25:07;;;;;;;1.63;1.00;;;21.00;58.70;;;;;;4957594;28;88780;-67
2024/03/15 02:27:34;;;;;;;2.08;1.13;;;21.10;58.80;;;;;;4974878;28;88554;-67
2024/03/15 02:30:00;;;;;;;2.78;1.23;;;21.00;58.90;;;;;;4973221;28;87775;-67
2024/03/15 02:32:25;;;;;;;1.35;0.90;;;21.00;58.90;;;;;;4974646;28;87217;-67
2024/03/15 02:34:52;;;;;;;3.72;1.65;;;21.00;58.80;;;;;;4973643;28;88977;-68
2024/03/15 02:37:17;;;;;;;2.85;1.20;;;21.00;58.80;;;;;;4973068;28;88987;-67
2024/03/15 02:39:43;;;;;;;2.47;1.00;;;21.00;58.80;;;;;;4958439;28;87627;-67
2024/03/15 02:42:10;;;;;;;2.35;1.05;;;21.00;58.90;;;;;;4956784;28;91781;-67
2024/03/15 02:44:37;;;;;;;2.03;1.38;;;21.00;58.80;;;;;;4971715;28;88084;-67
2024/03/15 02:47:03;;;;;;;4.55;1.52;;;21.00;58.80;;;;;;4972405;28;87461;-67
2024/03/15 02:49:30;;;;;;;1.13;0.80;;;21.00;58.90;;;;;;4974650;28;87604;-67
2024/03/15 02:51:56;;;;;;;3.25;1.60;;;21.00;58.70;;;;;;4971564;28;87264;-67
2024/03/15 02:54:24;;;;;;;1.52;1.10;;;21.00;58.70;;;;;;4973033;28;88343;-67
2024/03/15 02:56:50;;;;;;;2.35;0.98;;;20.90;58.70;;;;;;4975860;28;87906;-67
2024/03/15 02:59:16;;;;;;;1.10;0.70;;;21.00;58.80;;;;;;4973929;28;87883;-67
2024/03/15 03:01:41;;;;;;;1.40;0.90;;;21.00;58.70;;;;;;4972290;28;87167;-67
2024/03/15 03:04:08;;;;;;;1.83;0.93;;;20.90;58.80;;;;;;4967887;28;87763;-67
2024/03/15 03:06:37;;;;;;;1.30;1.10;;;20.90;58.70;;;;;;4993914;28;87976;-67
2024/03/15 03:09:03;;;;;;;4.22;1.17;;;20.90;58.60;;;;;;4993685;28;87086;-67
2024/03/15 03:11:28;;;;;;;1.60;0.93;;;21.00;58.60;;;;;;4990838;28;90087;-67
2024/03/15 03:13:58;;;;;;;3.60;1.88;;;20.90;58.50;;;;;;4991780;28;88930;-67
2024/03/15 03:16:23;;;;;;;;;;;20.90;58.70;;;;;;4994298;28;87858;-67
2024/03/15 03:18:49;;;;;;;1.98;1.40;;;20.90;58.60;;;;;;4976294;28;87292;-67
2024/03/15 03:21:15;;;;;;;1.42;0.73;;;20.90;58.70;;;;;;4994797;28;87212;-67
2024/03/15 03:23:40;;;;;;;1.50;1.10;;;20.90;58.50;;;;;;4991007;28;89069;-67
2024/03/15 03:26:08;;;;;;;1.38;0.90;;;20.90;58.60;;;;;;4974706;28;88322;-67
2024/03/15 03:28:34;;;;;;;1.63;0.88;;;20.90;58.50;;;;;;4973070;28;88326;-68
2024/03/15 03:31:00;;;;;;;1.75;1.02;;;20.90;58.50;;;;;;4974265;28;87498;-67
2024/03/15 03:33:25;;;;;;;2.63;1.10;;;20.90;58.60;;;;;;4974655;28;87581;-67
2024/03/15 03:35:52;;;;;;;1.75;0.68;;;20.90;58.60;;;;;;4974212;28;87261;-67
2024/03/15 03:38:18;;;;;;;2.10;0.90;;;20.90;58.50;;;;;;4973002;28;87440;-67
2024/03/15 03:40:44;;;;;;;4.15;1.20;;;20.90;58.50;;;;;;4971591;28;88000;-67
2024/03/15 03:43:09;;;;;;;2.65;1.23;;;20.90;58.50;;;;;;4970487;28;88281;-67
2024/03/15 03:45:36;;;;;;;2.10;1.05;;;20.90;58.50;;;;;;4973857;28;87812;-66
2024/03/15 03:48:02;;;;;;;2.55;0.90;;;20.90;58.60;;;;;;4971026;28;88346;-67
2024/03/15 03:50:28;;;;;;;2.47;1.55;;;20.90;58.50;;;;;;4973091;28;87413;-67
2024/03/15 03:52:55;;;;;;;2.20;1.52;;;20.90;58.60;;;;;;4973758;28;88604;-66
2024/03/15 03:55:24;;;;;;;1.48;1.08;;;20.90;58.60;;;;;;4973407;28;87604;-67
2024/03/15 03:57:51;;;;;;;2.40;1.38;;;20.90;58.60;;;;;;4972956;28;87648;-68
2024/03/15 04:00:17;;;;;;;1.25;1.00;;;20.90;58.50;;;;;;4974354;28;87111;-68
2024/03/15 04:02:50;;;;;;;2.28;1.15;;;20.90;58.40;;;;;;4972998;28;88163;-67
2024/03/15 04:05:18;;;;;;;1.45;1.10;;;20.90;58.40;;;;;;4974071;28;86992;-67
2024/03/15 04:07:46;;;;;;;1.77;1.15;;;20.80;58.40;;;;;;4973480;28;87338;-67
2024/03/15 04:10:14;;;;;;;2.58;1.10;;;20.80;58.50;;;;;;4971686;28;87335;-67
2024/03/15 04:12:40;;;;;;;1.48;1.05;;;20.90;58.60;;;;;;4971956;28;89799;-67
2024/03/15 04:15:09;;;;;;;1.50;0.85;;;20.80;58.60;;;;;;4980585;28;91723;-67
2024/03/15 04:17:35;;;;;;;2.60;1.17;;;20.80;58.50;;;;;;4994227;28;87226;-67
2024/03/15 04:20:00;;;;;;;1.30;0.90;;;20.80;58.50;;;;;;4993510;28;87280;-67
2024/03/15 04:22:28;;;;;;;1.55;0.70;;;20.80;58.50;;;;;;4991889;28;87892;-67
2024/03/15 04:24:59;;;;;;;4.28;1.60;;;20.80;58.50;;;;;;4989422;28;88102;-67
2024/03/15 04:27:25;;;;;;;1.80;1.10;;;20.80;58.50;;;;;;4991541;28;87678;-67
2024/03/15 04:29:51;;;;;;;2.00;0.90;;;20.80;58.50;;;;;;4992605;28;86371;-68
2024/03/15 04:32:19;;;;;;;1.63;0.90;;;20.80;58.60;;;;;;4990102;28;89193;-67
2024/03/15 04:34:47;;;;;;;8.18;1.40;;;20.80;58.60;;;;;;4991847;28;88094;-67
2024/03/15 04:37:15;;;;;;;2.45;1.35;;;20.80;58.70;;;;;;4990850;28;88312;-67
2024/03/15 04:39:42;;;;;;;2.63;0.80;;;20.80;58.60;;;;;;4990789;28;88310;-67
2024/03/15 04:42:09;;;;;;;2.15;1.10;;;20.80;58.50;;;;;;4991183;28;88561;-67
2024/03/15 04:44:38;;;;;;;1.25;0.77;;;20.80;58.40;;;;;;4992511;28;87622;-67
2024/03/15 04:47:06;;;;;;;3.27;1.20;;;20.80;58.50;;;;;;4992977;28;87877;-66
2024/03/15 04:49:34;;;;;;;0.90;0.77;;;20.80;58.60;;;;;;4959604;28;88165;-67
2024/03/15 04:52:00;;;;;;;3.15;1.13;;;20.80;58.40;;;;;;4972286;28;89061;-67
2024/03/15 04:54:26;;;;;;;1.02;0.70;;;20.80;58.60;;;;;;4974989;28;87760;-67
2024/03/15 04:56:53;;;;;;;2.17;0.80;;;20.80;58.50;;;;;;4970714;28;86938;-67
2024/03/15 04:59:19;;;;;;;2.30;1.08;;;20.70;58.40;;;;;;4972909;28;87457;-67
2024/03/15 05:01:45;;;;;;;3.20;1.10;;;20.80;58.50;;;;;;4970875;28;88764;-67
2024/03/15 05:04:11;;;;;;;1.30;0.90;;;20.70;58.40;;;;;;4952776;28;89196;-67
2024/03/15 05:06:37;;;;;;;2.88;1.33;;;20.80;58.40;;;;;;4973035;28;87241;-67
2024/03/15 05:09:05;;;;;;;1.23;0.80;;;20.70;58.50;;;;;;4971034;28;86925;-67
2024/03/15 05:11:31;;;;;;;1.10;1.00;;;20.70;58.50;;;;;;4969643;28;88977;-66
2024/03/15 05:13:57;;;;;;;2.10;1.05;;;20.70;58.40;;;;;;4971000;28;87840;-67
2024/03/15 05:16:23;;;;;;;1.65;0.82;;;20.70;58.50;;;;;;4970924;28;88110;-67
2024/03/15 05:18:49;;;;;;;4.85;1.20;;;20.70;58.40;;;;;;4972970;28;86624;-67
2024/03/15 05:21:15;;;;;;;1.55;1.00;;;20.70;59.00;;;;;;4972453;28;88050;-66
2024/03/15 05:23:41;;;;;;;1.00;0.90;;;20.70;58.50;;;;;;4968255;28;89401;-67
2024/03/15 05:26:08;;;;;;;1.48;0.90;;;20.70;58.40;;;;;;4965070;28;88394;-67
2024/03/15 05:28:34;;;;;;;1.30;0.95;;;20.70;58.40;;;;;;4967801;28;87047;-66
2024/03/15 05:31:04;;;;;;;1.98;0.85;;;20.70;58.40;;;;;;4972486;28;88765;-67
2024/03/15 05:33:34;;;;;;;0.93;0.80;;;20.70;58.40;;;;;;4973008;28;87805;-67
2024/03/15 05:36:01;;;;;;;1.40;0.90;;;20.70;58.30;;;;;;4971040;28;87133;-67
2024/03/15 05:38:27;;;;;;;0.77;0.60;;;20.70;58.30;;;;;;4971762;28;87584;-67
2024/03/15 05:40:53;;;;;;;1.75;0.93;;;20.70;58.40;;;;;;4971863;28;88133;-67
2024/03/15 05:43:18;;;;;;;0.95;0.77;;;20.70;58.40;;;;;;4971167;28;87675;-67
2024/03/15 05:45:44;;;;;;;1.00;0.75;;;20.70;58.20;;;;;;4972494;28;87217;-67
2024/03/15 05:48:10;;;;;;;0.98;0.70;;;20.70;58.20;;;;;;4972691;28;88843;-67
2024/03/15 05:51:31;;;;;;;1.00;0.70;;;20.70;58.80;;;;;;4973955;28;89641;-67
2024/03/15 05:53:57;;;;;;;1.80;1.00;;;20.60;58.40;;;;;;4971248;28;89909;-67
2024/03/15 05:56:26;;;;;;;1.23;0.80;;;20.70;58.30;;;;;;4990186;28;87122;-65
2024/03/15 05:58:51;;;;;;;1.23;0.97;;;20.70;58.30;;;;;;4994831;28;87112;-67
2024/03/15 06:01:17;;;;;;;1.67;1.00;;;20.70;58.30;;;;;;4994152;28;87641;-67
2024/03/15 06:03:43;;;;;;;2.08;1.08;;;20.70;58.30;;;;;;4991938;28;87825;-67
2024/03/15 06:06:09;;;;;;;1.40;0.93;;;20.70;58.40;;;;;;4974788;28;87420;-67
2024/03/15 06:08:35;;;;;;;1.02;0.88;;;20.60;58.10;;;;;;4956624;28;86814;-67
2024/03/15 06:11:01;;;;;;;1.10;0.63;;;20.60;58.20;;;;;;4955289;28;88815;-67
2024/03/15 06:13:27;;;;;;;1.70;0.88;;;20.60;58.20;;;;;;4971633;28;87767;-67
2024/03/15 06:15:54;;;;;;;1.75;0.90;;;20.60;58.10;;;;;;4974546;28;88370;-67
2024/03/15 06:18:20;;;;;;;1.63;0.95;;;20.70;58.20;;;;;;4974463;28;87617;-67
2024/03/15 06:20:46;;;;;;;2.00;0.98;;;20.60;58.10;;;;;;4956785;28;87728;-67
2024/03/15 06:23:11;;;;;;;1.48;0.77;;;20.60;58.10;;;;;;4974970;28;87851;-66
2024/03/15 06:25:37;;;;;;;1.25;1.10;;;20.60;58.10;;;;;;4973503;28;87024;-67
2024/03/15 06:28:07;;;;;;;1.48;1.00;;;20.60;58.30;;;;;;4975987;28;88217;-67
2024/03/15 06:30:43;;;;;;;2.13;0.95;;;20.60;58.10;;;;;;4975535;28;88083;-66
2024/03/15 06:33:10;;;;;;;1.10;0.80;;;20.60;58.10;;;;;;4969609;28;88334;-66
2024/03/15 06:35:36;;;;;;;1.50;1.05;;;20.60;58.10;;;;;;4974523;28;87682;-67
2024/03/15 06:38:27;;;;;;;2.05;1.20;;;20.60;58.30;;;;;;4952875;28;87330;-67
2024/03/15 06:40:56;;;;;;;1.85;0.73;;;20.60;57.90;;;;;;4974852;28;89164;-67
2024/03/15 06:43:35;;;;;;;1.02;0.75;;;20.60;58.10;;;;;;4970993;28;87807;-67
2024/03/15 06:46:19;;;;;;;1.58;0.82;;;20.70;58.20;;;;;;4967138;28;87629;-66
2024/03/15 06:48:59;;;;;;;1.65;0.90;;;20.60;58.00;;;;;;4975076;28;87001;-66
2024/03/15 06:54:11;;;;;;;3.05;0.93;;;20.70;58.40;;;;;;4975177;28;91494;-67
2024/03/15 06:56:38;;;;;;;1.48;0.90;;;20.70;58.40;;;;;;4974220;28;86879;-67
2024/03/15 06:59:04;;;;;;;4.07;1.20;;;20.70;58.80;;;;;;4971673;28;86721;-64
2024/03/15 07:01:32;;;;;;;3.80;2.17;;;20.70;58.70;;;;;;4971598;28;88512;-67
2024/03/15 07:04:00;;;;;;;3.88;1.77;;;20.80;59.40;;;;;;4954087;28;88981;-67
2024/03/15 07:06:27;;;;;;;5.17;1.90;;;20.80;59.30;;;;;;4962343;28;88016;-66
2024/03/15 07:08:55;;;;;;;2.60;1.70;;;20.90;59.20;;;;;;4986747;28;87358;-66
2024/03/15 07:11:26;;;;;;;3.03;2.17;;;20.90;59.10;;;;;;4977033;28;88083;-67
2024/03/15 07:13:52;;;;;;;4.40;2.13;;;20.90;59.10;;;;;;4971487;28;88729;-67
2024/03/15 07:16:18;;;;;;;3.58;1.77;;;21.00;59.00;;;;;;4966133;28;87391;-67
2024/03/15 07:18:43;;;;;;;4.32;1.88;;;21.00;59.00;;;;;;4990747;28;87487;-66
2024/03/15 07:21:11;;;;;;;4.43;2.00;;;21.20;58.90;;;;;;4969347;28;93768;-67
2024/03/15 07:23:39;;;;;;;3.88;1.83;;;21.20;58.80;;;;;;4964729;28;88782;-66
2024/03/15 07:26:10;;;;;;;3.90;1.75;;;21.30;58.80;;;;;;4970449;28;87354;-66
2024/03/15 07:28:38;;;;;;;3.40;2.20;;;21.30;58.70;;;;;;4971550;28;87971;-67
2024/03/15 07:31:04;;;;;;;4.45;2.50;;;21.30;58.50;;;;;;4969501;28;89236;-66
2024/03/15 07:33:31;;;;;;;5.05;1.85;;;21.40;58.50;;;;;;4965397;28;88763;-66
2024/03/15 07:36:01;;;;;;;4.97;1.58;;;21.40;58.50;;;;;;4965037;28;87686;-68
2024/03/15 07:38:30;;;;;;;3.15;1.90;;;21.40;58.70;;;;;;4967454;28;87015;-67
2024/03/15 07:40:56;;;;;;;2.38;1.40;;;21.40;58.60;;;;;;4972855;28;87592;-68
2024/03/15 07:43:23;;;;;;;5.38;2.40;;;21.40;58.60;;;;;;4977948;28;87662;-67
2024/03/15 07:45:50;;;;;;;3.03;1.75;;;21.40;58.60;;;;;;4985227;28;87580;-67
2024/03/15 07:48:18;;;;;;;3.45;1.75;;;21.40;58.60;;;;;;4971879;28;88150;-67
2024/03/15 07:50:44;;;;;;;7.35;2.50;;;21.40;58.50;;;;;;4953558;28;90632;-67
2024/03/15 07:53:09;;;;;;;2.60;1.55;;;21.50;58.50;;;;;;4971982;28;87189;-67
2024/03/15 07:55:35;;;;;;;3.40;1.75;;;21.40;58.60;;;;;;4968947;28;88301;-68
2024/03/15 07:58:02;;;;;;;54.70;9.88;;;21.40;58.60;;;;;;4967353;28;87567;-68
2024/03/15 08:00:29;;;;;;;52.95;9.63;;;21.40;57.90;;;;;;4952046;28;88520;-68
2024/03/15 08:02:58;;;;;;;43.00;8.55;;;21.30;57.40;;;;;;4968272;28;87627;-67
2024/03/15 08:05:27;;;;;;;40.17;8.23;;;21.30;57.60;;;;;;4972431;28;87407;-68
2024/03/15 08:07:57;;;;;;;34.07;8.67;;;21.30;57.70;;;;;;4967008;28;87877;-68
2024/03/15 08:10:23;;;;;;;29.50;7.70;;;21.20;58.00;;;;;;4970074;28;88360;-68
2024/03/15 08:12:50;;;;;;;37.97;7.00;;;21.20;58.20;;;;;;4950665;28;87916;-67
2024/03/15 08:15:17;;;;;;;24.48;6.15;;;21.20;58.50;;;;;;4972775;28;87298;-66
2024/03/15 08:17:45;;;;;;;29.50;5.35;;;21.20;58.90;;;;;;4952508;28;87526;-67
2024/03/15 08:20:11;;;;;;;24.20;5.38;;;21.20;59.00;;;;;;4968493;28;90582;-67
2024/03/15 08:22:40;;;;;;;26.80;4.97;;;21.20;59.20;;;;;;4968216;28;89651;-69
2024/03/15 08:25:07;;;;;;;;;;;21.30;59.00;;;;;;4966084;28;87448;-68
2024/03/15 08:27:34;;;;;;;24.58;5.32;;;21.30;59.00;;;;;;4976317;28;87089;-68
2024/03/15 08:30:03;;;;;;;19.25;5.43;;;21.30;58.90;;;;;;4958105;28;88224;-67
2024/03/15 08:32:30;;;;;;;13.52;3.30;;;21.40;59.00;;;;;;4975878;28;88104;-67
2024/03/15 08:34:59;;;;;;;14.30;4.35;;;21.40;59.10;;;;;;4968497;28;87354;-67
2024/03/15 08:37:26;;;;;;;20.73;5.10;;;21.40;58.90;;;;;;4955199;28;87008;-68
2024/03/15 08:39:52;;;;;;;20.77;4.95;;;21.50;58.90;;;;;;4930605;28;91044;-66
2024/03/15 08:42:18;;;;;;;12.13;3.50;;;21.50;59.00;;;;;;4971347;28;87574;-69
2024/03/15 08:44:44;;;;;;;16.10;4.53;;;21.50;59.20;;;;;;4970947;28;88131;-67
2024/03/15 08:47:10;;;;;;;14.02;3.50;;;21.60;58.40;;;;;;4971306;28;87641;-67
2024/03/15 08:49:37;;;;;;;17.50;4.88;;;21.60;58.50;;;;;;4970858;28;87248;-68
2024/03/15 08:52:06;;;;;;;13.30;3.90;;;21.60;58.40;;;;;;4953791;28;88988;-68
2024/03/15 08:54:34;;;;;;;17.08;3.42;;;21.60;59.00;;;;;;4953845;28;87419;-68
2024/03/15 08:57:10;;;;;;;18.77;4.90;;;21.50;58.40;;;;;;4972494;28;87706;-67
2024/03/15 08:59:37;;;;;;;15.57;4.20;;;21.50;58.40;;;;;;4971072;28;89415;-67
2024/03/15 09:02:04;;;;;;;18.27;4.78;;;21.50;59.30;;;;;;4965920;28;86220;-67
2024/03/15 09:04:30;;;;;;;15.45;3.80;;;21.50;58.90;;;;;;4972725;28;87154;-67
2024/03/15 09:06:56;;;;;;;12.88;4.35;;;21.50;58.90;;;;;;4950493;28;87283;-67
2024/03/15 09:09:31;;;;;;;16.38;4.45;;;21.50;59.10;;;;;;4952517;28;89558;-68
2024/03/15 09:12:01;;;;;;;13.02;3.25;;;21.50;59.10;;;;;;4970273;28;88870;-68
2024/03/15 09:14:27;;;;;;;16.08;4.45;;;21.50;59.10;;;;;;4950085;28;87869;-68
2024/03/15 09:16:56;;;;;;;16.17;4.57;;;21.40;59.20;;;;;;4964590;28;87579;-64
2024/03/15 09:19:22;;;;;;;10.57;4.30;;;21.40;59.30;;;;;;4970278;28;88854;-66
2024/03/15 09:21:50;;;;;;;7.63;3.63;;;21.40;59.30;;;;;;4953747;28;88345;-66
2024/03/15 09:24:17;;;;;;;16.55;4.05;;;21.40;59.50;;;;;;4969463;28;87265;-66
2024/03/15 09:26:45;;;;;;;10.85;4.00;;;21.30;59.60;;;;;;4958686;28;88104;-67
2024/03/15 09:29:11;;;;;;;10.27;3.47;;;21.30;59.70;;;;;;4953735;28;88119;-67
2024/03/15 09:31:40;;;;;;;7.93;3.35;;;21.30;60.10;;;;;;4956542;28;88355;-66
2024/03/15 09:34:10;;;;;;;11.87;3.27;;;21.30;60.70;;;;;;4983975;28;89218;-68
2024/03/15 09:36:38;;;;;;;8.98;2.88;;;21.30;61.70;;;;;;4974502;28;87471;-68
2024/03/15 09:39:05;;;;;;;8.02;2.78;;;21.20;63.00;;;;;;4973330;28;88081;-65
2024/03/15 09:41:33;;;;;;;13.30;3.90;;;21.20;64.10;;;;;;4956264;28;88909;-68
2024/03/15 09:43:59;;;;;;;12.88;3.83;;;21.20;61.30;;;;;;4974008;28;87527;-64
2024/03/15 09:46:25;;;;;;;17.63;4.60;;;21.30;61.80;;;;;;4975432;28;87289;-67
2024/03/15 09:48:56;;;;;;;15.32;4.85;;;21.40;62.60;;;;;;4972781;28;88400;-72
2024/03/15 09:51:25;;;;;;;12.73;4.15;;;21.50;61.60;;;;;;4974896;28;88028;-66
2024/03/15 09:53:52;;;;;;;5.03;2.67;;;21.60;63.10;;;;;;4957054;28;87220;-64
2024/03/15 09:56:19;;;;;;;12.95;4.38;;;21.60;62.70;;;;;;4974035;28;87367;-65
2024/03/15 09:58:49;;;;;;;8.25;3.25;;;21.70;61.40;;;;;;4971069;28;89385;-66
2024/03/15 10:01:15;;;;;;;10.68;4.00;;;21.70;60.80;;;;;;4973630;28;88764;-69
2024/03/15 10:03:51;;;;;;;8.25;3.22;;;21.80;60.40;;;;;;4972847;28;87532;-66
2024/03/15 10:06:20;;;;;;;10.30;3.50;;;21.70;60.10;;;;;;4969958;28;87180;-67
2024/03/15 10:08:48;;;;;;;7.40;2.80;;;21.70;59.80;;;;;;4974045;28;88142;-69
2024/03/15 10:11:14;;;;;;;9.15;3.22;;;21.80;59.80;;;;;;4974990;28;87991;-66
2024/03/15 10:13:40;;;;;;;9.95;2.72;;;21.80;59.40;;;;;;4955971;28;87476;-69
2024/03/15 10:16:09;;;;;;;10.80;2.60;;;21.80;59.80;;;;;;4972809;28;86836;-69
2024/03/15 10:18:38;;;;;;;7.77;2.53;;;21.80;59.80;;;;;;4955247;28;87983;-66
2024/03/15 10:21:07;;;;;;;;;;;21.80;59.90;;;;;;4972273;28;87650;-64
2024/03/15 10:23:33;;;;;;;11.15;3.60;;;21.80;60.20;;;;;;4967952;28;87757;-61
2024/03/15 10:26:00;;;;;;;7.60;3.30;;;21.90;60.20;;;;;;4956142;28;87562;-61
2024/03/15 10:28:27;;;;;;;9.50;2.55;;;21.90;60.40;;;;;;4974257;28;89686;-62
2024/03/15 10:30:56;;;;;;;10.48;2.78;;;21.90;60.40;;;;;;4955981;28;88340;-61
2024/03/15 10:33:22;;;;;;;12.98;3.22;;;21.90;64.40;;;;;;4973228;28;87354;-60
2024/03/15 10:35:48;;;;;;;8.05;2.50;;;21.90;67.20;;;;;;4968468;28;87771;-61
2024/03/15 10:38:14;;;;;;;10.95;2.60;;;21.90;71.10;;;;;;4954418;28;88612;-60
2024/03/15 10:40:40;;;;;;;6.07;2.80;;;21.80;68.50;;;;;;4966766;28;89121;-61
2024/03/15 10:43:11;;;;;;;8.30;2.60;;;21.80;69.40;;;;;;4974300;28;87683;-60
2024/03/15 10:45:40;;;;;;;10.77;4.47;;;21.70;71.20;;;;;;4974361;28;87348;-60
2024/03/15 10:48:10;;;;;;;9.48;3.00;;;21.70;68.70;;;;;;4969849;28;89444;-61
2024/03/15 10:50:37;;;;;;;7.85;2.53;;;21.70;70.10;;;;;;4968984;28;90337;-61
2024/03/15 10:53:13;;;;;;;9.05;3.20;;;21.60;71.00;;;;;;4974086;28;87469;-60
2024/03/15 10:55:39;;;;;;;9.52;3.30;;;21.70;70.90;;;;;;4974481;28;86917;-61
2024/03/15 10:58:08;;;;;;;10.27;3.17;;;21.70;71.00;;;;;;4975162;28;87035;-60
2024/03/15 11:00:34;;;;;;;9.73;3.00;;;21.60;70.50;;;;;;4956054;28;88516;-62
2024/03/15 11:03:21;;;;;;;6.45;2.45;;;21.60;69.40;;;;;;4956624;28;87667;-60
2024/03/15 11:05:47;;;;;;;9.75;3.53;;;21.60;68.10;;;;;;4968877;28;86829;-61
2024/03/15 11:08:21;;;;;;;9.13;2.92;;;21.60;68.60;;;;;;4975065;28;88758;-60
2024/03/15 11:10:54;;;;;;;13.73;3.08;;;21.70;67.90;;;;;;4974110;28;87909;-61
2024/03/15 11:13:23;;;;;;;7.43;3.05;;;21.70;67.30;;;;;;4956673;28;88461;-61
2024/03/15 11:15:49;;;;;;;7.85;2.42;;;21.70;67.90;;;;;;4974044;28;87244;-61
2024/03/15 11:18:18;;;;;;;7.32;2.33;;;21.70;67.00;;;;;;4955268;28;88273;-61
2024/03/15 11:20:48;;;;;;;5.38;2.40;;;21.80;66.00;;;;;;4973923;28;87892;-62
2024/03/15 11:23:21;;;;;;;7.82;3.00;;;21.70;65.60;;;;;;4954231;28;87243;-61
2024/03/15 11:26:00;;;;;;;6.93;2.47;;;21.80;65.40;;;;;;4972722;28;87018;-60
2024/03/15 11:28:31;;;;;;;13.25;3.08;;;21.80;65.20;;;;;;4955321;28;88451;-60
2024/03/15 11:30:59;;;;;;;5.68;2.30;;;21.80;65.20;;;;;;4952797;28;87956;-61
2024/03/15 11:33:27;;;;;;;8.88;3.65;;;21.70;65.50;;;;;;4965388;28;87707;-61
2024/03/15 11:35:53;;;;;;;6.68;2.00;;;21.70;65.60;;;;;;4954024;28;88041;-60
2024/03/15 11:38:19;;;;;;;7.25;2.55;;;21.70;65.60;;;;;;4968787;28;88975;-61
2024/03/15 11:40:46;;;;;;;10.73;2.50;;;21.70;65.80;;;;;;4972227;28;89526;-61
2024/03/15 11:43:13;;;;;;;7.40;2.90;;;21.80;65.60;;;;;;4973274;28;87700;-61
2024/03/15 11:45:41;;;;;;;4.75;2.38;;;21.80;64.70;;;;;;4988890;28;87542;-60
2024/03/15 11:48:16;;;;;;;13.48;2.78;;;21.80;64.50;;;;;;4975259;28;88648;-60
2024/03/15 11:50:44;;;;;;;4.53;1.98;;;21.80;64.20;;;;;;4973795;28;91806;-61
2024/03/15 11:53:15;;;;;;;8.05;2.45;;;21.80;64.80;;;;;;4973828;28;87536;-61
2024/03/15 11:55:42;;;;;;;6.15;1.98;;;21.80;64.70;;;;;;4975873;28;86894;-61
2024/03/15 11:58:14;;;;;;;6.93;1.92;;;21.80;64.10;;;;;;4976685;28;87762;-61
2024/03/15 12:00:51;;;;;;;6.97;2.13;;;21.80;64.10;;;;;;4972740;28;87820;-62
2024/03/15 12:03:22;;;;;;;8.35;2.80;;;21.70;64.00;;;;;;4972641;28;88080;-61
2024/03/15 12:05:48;;;;;;;12.38;2.92;;;21.70;63.90;;;;;;4979532;28;87574;-61
2024/03/15 12:08:20;;;;;;;7.07;2.47;;;21.70;63.90;;;;;;4990166;28;87539;-61
2024/03/15 12:10:46;;;;;;;5.13;2.20;;;21.70;63.80;;;;;;4975883;28;87809;-62
2024/03/15 12:13:23;;;;;;;5.40;2.05;;;21.70;63.70;;;;;;4972574;28;88459;-61
2024/03/15 12:15:51;;;;;;;9.90;2.95;;;21.70;63.70;;;;;;4971165;28;87328;-60
2024/03/15 12:18:22;;;;;;;5.90;1.95;;;21.70;63.50;;;;;;4969829;28;88886;-61
2024/03/15 12:20:51;;;;;;;5.22;1.70;;;21.70;63.30;;;;;;4972829;28;87737;-61
2024/03/15 12:23:19;;;;;;;8.07;2.45;;;21.80;63.10;;;;;;4970786;28;87319;-60
2024/03/15 12:25:47;;;;;;;4.78;1.63;;;21.80;62.90;;;;;;4973193;28;87541;-61
2024/03/15 12:28:17;;;;;;;2.75;1.45;;;21.70;62.70;;;;;;4955451;28;90234;-61
2024/03/15 12:30:47;;;;;;;6.03;2.10;;;21.70;62.40;;;;;;4972930;28;90309;-61
2024/03/15 12:35:40;;;;;;;5.43;2.30;;;21.70;61.80;;;;;;4954831;28;87507;-60
2024/03/15 12:38:09;;;;;;;5.57;1.95;;;21.80;61.60;;;;;;4970223;28;88106;-62
2024/03/15 12:40:42;;;;;;;;;;;21.80;61.40;;;;;;4972737;28;88090;-60
2024/03/15 12:43:09;;;;;;;5.10;2.10;;;21.80;61.10;;;;;;4972938;28;88551;-61
2024/03/15 12:45:34;;;;;;;6.72;2.33;;;21.80;61.40;;;;;;4970163;28;87253;-61
2024/03/15 12:48:00;;;;;;;6.10;1.85;;;21.70;60.90;;;;;;4952816;28;89406;-61
2024/03/15 12:50:31;;;;;;;6.10;2.08;;;21.70;61.20;;;;;;4968714;28;88220;-61
2024/03/15 12:53:05;;;;;;;5.88;1.67;;;21.70;61.50;;;;;;4969049;28;88296;-61